createdAt,value
2023-04-01T00:00:37.849Z,43
2023-04-01T00:01:41.163Z,43
2023-04-01T00:02:44.539Z,43
2023-04-01T00:03:48.466Z,43
2023-04-01T00:04:52.029Z,44
2023-04-01T00:05:55.368Z,44
2023-04-01T00:06:58.904Z,44
2023-04-01T00:08:02.219Z,44
2023-04-01T00:09:05.858Z,44
2023-04-01T00:10:09.153Z,44
2023-04-01T00:11:12.536Z,45
2023-04-01T00:12:15.902Z,44
2023-04-01T00:13:19.235Z,44
2023-04-01T00:14:22.730Z,45
2023-04-01T00:15:26.022Z,44
2023-04-01T00:16:29.367Z,44
2023-04-01T00:17:32.985Z,45
2023-04-01T00:18:36.317Z,44
2023-04-01T00:19:39.810Z,45
2023-04-01T00:20:43.105Z,45
2023-04-01T00:21:46.396Z,45
2023-04-01T00:22:49.908Z,45
2023-04-01T00:23:53.211Z,45
2023-04-01T00:24:56.525Z,45
2023-04-01T00:25:59.859Z,45
2023-04-01T00:27:03.204Z,45
2023-04-01T00:28:06.568Z,45
2023-04-01T00:29:09.887Z,45
2023-04-01T00:30:13.212Z,45
2023-04-01T00:31:16.781Z,45
2023-04-01T00:32:20.474Z,45
2023-04-01T00:33:23.820Z,45
2023-04-01T00:34:27.118Z,44
2023-04-01T00:35:30.821Z,45
2023-04-01T00:36:34.948Z,45
2023-04-01T00:37:38.277Z,45
2023-04-01T00:38:41.638Z,45
2023-04-01T00:39:44.944Z,45
2023-04-01T00:40:48.297Z,45
2023-04-01T00:41:51.826Z,45
2023-04-01T00:42:55.112Z,45
2023-04-01T00:43:58.428Z,45
2023-04-01T00:45:02.023Z,45
2023-04-01T00:46:05.360Z,45
2023-04-01T00:47:09.075Z,45
2023-04-01T00:48:12.705Z,45
2023-04-01T00:49:16.104Z,45
2023-04-01T00:50:19.436Z,45
2023-04-01T00:51:22.981Z,45
2023-04-01T00:52:26.270Z,45
2023-04-01T00:53:29.600Z,45
2023-04-01T00:54:32.901Z,45
2023-04-01T00:55:36.226Z,45
2023-04-01T00:56:39.567Z,45
2023-04-01T00:57:42.854Z,45
2023-04-01T00:58:46.139Z,44
2023-04-01T00:59:49.439Z,44
2023-04-01T01:00:53.167Z,44
2023-04-01T01:01:56.954Z,44
2023-04-01T01:03:00.345Z,44
2023-04-01T01:04:03.848Z,44
2023-04-01T01:05:07.118Z,45
2023-04-01T01:06:10.398Z,45
2023-04-01T01:07:13.950Z,45
2023-04-01T01:08:17.250Z,45
2023-04-01T01:09:20.535Z,45
2023-04-01T01:10:23.854Z,45
2023-04-01T01:11:33.494Z,45
2023-04-01T01:12:40.728Z,45
2023-04-01T01:13:44.009Z,45
2023-04-01T01:14:47.267Z,45
2023-04-01T01:15:50.859Z,45
2023-04-01T01:16:54.377Z,45
2023-04-01T01:17:57.794Z,45
2023-04-01T01:19:01.124Z,45
2023-04-01T01:20:15.568Z,45
2023-04-01T01:21:22.760Z,45
2023-04-01T01:22:26.047Z,45
2023-04-01T01:23:29.315Z,45
2023-04-01T01:24:32.621Z,45
2023-04-01T01:25:35.901Z,45
2023-04-01T01:26:39.169Z,45
2023-04-01T01:27:42.484Z,45
2023-04-01T01:28:45.856Z,45
2023-04-01T01:29:49.136Z,45
2023-04-01T01:30:52.810Z,45
2023-04-01T01:31:56.264Z,45
2023-04-01T01:32:59.667Z,45
2023-04-01T01:34:02.994Z,45
2023-04-01T01:35:06.307Z,45
2023-04-01T01:36:09.941Z,45
2023-04-01T01:37:13.261Z,45
2023-04-01T01:38:16.822Z,45
2023-04-01T01:39:20.123Z,45
2023-04-01T01:40:23.388Z,45
2023-04-01T01:41:26.847Z,45
2023-04-01T01:42:30.117Z,45
2023-04-01T01:43:33.445Z,45
2023-04-01T01:44:36.924Z,45
2023-04-01T01:45:40.344Z,45
2023-04-01T01:46:43.877Z,45
2023-04-01T01:47:47.256Z,45
2023-04-01T01:48:50.897Z,45
2023-04-01T01:49:54.183Z,45
2023-04-01T01:50:57.484Z,44
2023-04-01T01:52:00.888Z,44
2023-04-01T01:53:04.177Z,44
2023-04-01T01:54:07.475Z,45
2023-04-01T01:55:10.974Z,45
2023-04-01T01:56:14.249Z,45
2023-04-01T01:57:17.571Z,45
2023-04-01T01:58:21.067Z,45
2023-04-01T01:59:24.567Z,45
2023-04-01T02:00:27.926Z,45
2023-04-01T02:01:31.247Z,45
2023-04-01T02:02:34.936Z,45
2023-04-01T02:03:38.346Z,45
2023-04-01T02:04:41.953Z,45
2023-04-01T02:05:45.374Z,44
2023-04-01T02:06:48.908Z,44
2023-04-01T02:07:52.178Z,45
2023-04-01T02:08:55.481Z,44
2023-04-01T02:09:58.987Z,45
2023-04-01T02:11:02.263Z,45
2023-04-01T02:12:05.596Z,45
2023-04-01T02:13:08.885Z,45
2023-04-01T02:14:12.158Z,45
2023-04-01T02:15:15.494Z,45
2023-04-01T02:16:18.972Z,44
2023-04-01T02:17:22.347Z,45
2023-04-01T02:18:25.888Z,45
2023-04-01T02:19:29.231Z,45
2023-04-01T02:20:32.560Z,45
2023-04-01T02:21:35.872Z,44
2023-04-01T02:22:39.147Z,44
2023-04-01T02:23:42.428Z,44
2023-04-01T02:24:45.913Z,44
2023-04-01T02:25:49.200Z,44
2023-04-01T02:26:52.766Z,44
2023-04-01T02:27:56.053Z,44
2023-04-01T02:28:59.342Z,44
2023-04-01T02:30:02.928Z,44
2023-04-01T02:31:06.263Z,44
2023-04-01T02:32:09.883Z,44
2023-04-01T02:33:13.239Z,44
2023-04-01T02:34:19.863Z,44
2023-04-01T02:35:23.179Z,44
2023-04-01T02:36:26.633Z,44
2023-04-01T02:37:29.977Z,44
2023-04-01T02:38:33.289Z,44
2023-04-01T02:39:36.580Z,44
2023-04-01T02:40:39.917Z,44
2023-04-01T02:41:43.216Z,44
2023-04-01T02:42:46.492Z,44
2023-04-01T02:43:50.148Z,44
2023-04-01T02:44:53.430Z,44
2023-04-01T02:45:56.921Z,44
2023-04-01T02:47:00.428Z,44
2023-04-01T02:48:03.921Z,44
2023-04-01T02:49:07.219Z,44
2023-04-01T02:50:10.769Z,44
2023-04-01T02:51:15.543Z,44
2023-04-01T02:52:21.578Z,44
2023-04-01T02:53:24.900Z,44
2023-04-01T02:54:28.205Z,44
2023-04-01T02:55:32.496Z,44
2023-04-01T02:56:36.192Z,44
2023-04-01T02:57:39.477Z,44
2023-04-01T02:58:42.902Z,44
2023-04-01T02:59:46.307Z,44
2023-04-01T03:00:49.918Z,44
2023-04-01T03:01:53.423Z,43
2023-04-01T03:02:57.524Z,43
2023-04-01T03:04:01.248Z,43
2023-04-01T03:05:04.773Z,43
2023-04-01T03:06:08.103Z,43
2023-04-01T03:07:11.432Z,43
2023-04-01T03:08:14.929Z,43
2023-04-01T03:09:18.254Z,43
2023-04-01T03:10:21.543Z,43
2023-04-01T03:11:24.951Z,43
2023-04-01T03:12:28.214Z,43
2023-04-01T03:13:31.484Z,43
2023-04-01T03:14:35.043Z,43
2023-04-01T03:15:38.327Z,43
2023-04-01T03:16:41.755Z,43
2023-04-01T03:17:45.155Z,43
2023-04-01T03:18:48.634Z,43
2023-04-01T03:19:51.911Z,43
2023-04-01T03:20:55.228Z,43
2023-04-01T03:21:58.822Z,43
2023-04-01T03:23:02.127Z,43
2023-04-01T03:24:05.460Z,43
2023-04-01T03:25:08.915Z,43
2023-04-01T03:26:12.220Z,43
2023-04-01T03:27:15.602Z,43
2023-04-01T03:28:18.922Z,43
2023-04-01T03:29:22.185Z,43
2023-04-01T03:30:25.854Z,43
2023-04-01T03:31:29.399Z,43
2023-04-01T03:32:33.194Z,43
2023-04-01T03:33:36.561Z,43
2023-04-01T03:34:39.911Z,43
2023-04-01T03:35:43.185Z,43
2023-04-01T03:36:46.846Z,43
2023-04-01T03:37:50.160Z,43
2023-04-01T03:38:53.475Z,43
2023-04-01T03:39:56.951Z,43
2023-04-01T03:41:00.436Z,43
2023-04-01T03:42:03.937Z,43
2023-04-01T03:43:07.441Z,43
2023-04-01T03:44:11.043Z,43
2023-04-01T03:45:14.317Z,43
2023-04-01T03:46:17.806Z,43
2023-04-01T03:47:21.207Z,43
2023-04-01T03:48:24.477Z,42
2023-04-01T03:49:27.925Z,41
2023-04-01T03:50:32.308Z,41
2023-04-01T03:51:35.630Z,41
2023-04-01T03:52:38.916Z,41
2023-04-01T03:53:42.220Z,41
2023-04-01T03:54:45.540Z,42
2023-04-01T03:55:48.948Z,42
2023-04-01T03:56:52.479Z,42
2023-04-01T03:57:56.046Z,42
2023-04-01T03:58:59.312Z,42
2023-04-01T04:00:02.599Z,42
2023-04-01T04:01:05.922Z,42
2023-04-01T04:02:09.281Z,42
2023-04-01T04:03:13.001Z,42
2023-04-01T04:04:16.993Z,42
2023-04-01T04:05:20.329Z,41
2023-04-01T04:06:23.663Z,41
2023-04-01T04:07:26.955Z,41
2023-04-01T04:08:30.251Z,41
2023-04-01T04:09:33.554Z,41
2023-04-01T04:10:36.967Z,41
2023-04-01T04:11:40.299Z,42
2023-04-01T04:12:43.849Z,42
2023-04-01T04:13:47.215Z,42
2023-04-01T04:14:50.574Z,42
2023-04-01T04:15:53.997Z,42
2023-04-01T04:16:57.357Z,42
2023-04-01T04:18:00.804Z,42
2023-04-01T04:19:04.289Z,42
2023-04-01T04:20:07.816Z,42
2023-04-01T04:21:11.118Z,42
2023-04-01T04:22:14.488Z,42
2023-04-01T04:23:17.945Z,42
2023-04-01T04:24:21.224Z,42
2023-04-01T04:25:24.539Z,42
2023-04-01T04:26:27.978Z,42
2023-04-01T04:27:31.363Z,42
2023-04-01T04:28:34.899Z,42
2023-04-01T04:29:38.195Z,42
2023-04-01T04:30:41.514Z,42
2023-04-01T04:31:45.134Z,42
2023-04-01T04:32:48.556Z,42
2023-04-01T04:33:52.004Z,42
2023-04-01T04:34:55.288Z,42
2023-04-01T04:35:58.920Z,42
2023-04-01T04:37:02.342Z,42
2023-04-01T04:38:05.710Z,42
2023-04-01T04:39:08.983Z,42
2023-04-01T04:40:12.291Z,41
2023-04-01T04:41:15.595Z,41
2023-04-01T04:42:18.970Z,41
2023-04-01T04:43:22.312Z,40
2023-04-01T04:44:25.864Z,40
2023-04-01T04:45:29.138Z,40
2023-04-01T04:46:32.500Z,40
2023-04-01T04:47:36.017Z,40
2023-04-01T04:48:39.413Z,40
2023-04-01T04:49:42.718Z,40
2023-04-01T04:50:45.991Z,40
2023-04-01T04:51:49.270Z,40
2023-04-01T04:52:52.555Z,40
2023-04-01T04:53:56.185Z,41
2023-04-01T04:54:59.469Z,41
2023-04-01T04:56:02.956Z,41
2023-04-01T04:57:06.424Z,41
2023-04-01T04:58:09.988Z,41
2023-04-01T04:59:13.345Z,42
2023-04-01T05:00:16.930Z,42
2023-04-01T05:01:20.298Z,42
2023-04-01T05:02:24.163Z,42
2023-04-01T05:03:28.154Z,42
2023-04-01T05:04:32.003Z,42
2023-04-01T05:05:35.316Z,42
2023-04-01T05:06:38.582Z,42
2023-04-01T05:07:41.956Z,42
2023-04-01T05:08:45.240Z,42
2023-04-01T05:09:48.531Z,42
2023-04-01T05:10:51.964Z,42
2023-04-01T05:11:55.240Z,42
2023-04-01T05:12:58.539Z,42
2023-04-01T05:14:02.094Z,42
2023-04-01T05:15:05.449Z,42
2023-04-01T05:16:08.958Z,42
2023-04-01T05:17:12.254Z,42
2023-04-01T05:18:15.520Z,42
2023-04-01T05:19:18.975Z,42
2023-04-01T05:20:22.276Z,42
2023-04-01T05:21:25.579Z,42
2023-04-01T05:22:29.061Z,42
2023-04-01T05:23:32.352Z,42
2023-04-01T05:24:35.646Z,42
2023-04-01T05:25:38.936Z,42
2023-04-01T05:26:42.205Z,42
2023-04-01T05:27:45.713Z,42
2023-04-01T05:28:49.122Z,42
2023-04-01T05:29:52.466Z,42
2023-04-01T05:30:56.076Z,42
2023-04-01T05:31:59.561Z,42
2023-04-01T05:33:03.186Z,42
2023-04-01T05:34:06.996Z,42
2023-04-01T05:35:10.310Z,42
2023-04-01T05:36:13.926Z,42
2023-04-01T05:37:17.410Z,42
2023-04-01T05:38:20.691Z,42
2023-04-01T05:39:24.001Z,42
2023-04-01T05:40:27.309Z,42
2023-04-01T05:41:30.618Z,42
2023-04-01T05:42:36.886Z,42
2023-04-01T05:43:41.985Z,41
2023-04-01T05:44:45.297Z,41
2023-04-01T05:45:48.744Z,40
2023-04-01T05:46:52.132Z,41
2023-04-01T05:47:55.615Z,41
2023-04-01T05:48:59.157Z,41
2023-04-01T05:50:02.473Z,42
2023-04-01T05:51:05.999Z,42
2023-04-01T05:52:09.294Z,42
2023-04-01T05:53:12.565Z,42
2023-04-01T05:54:15.997Z,42
2023-04-01T05:55:19.288Z,42
2023-04-01T05:56:22.554Z,42
2023-04-01T05:57:26.166Z,42
2023-04-01T05:58:29.540Z,42
2023-04-01T05:59:32.983Z,42
2023-04-01T06:00:36.329Z,42
2023-04-01T06:01:39.671Z,42
2023-04-01T06:02:43.369Z,42
2023-04-01T06:03:47.446Z,42
2023-04-01T06:04:51.365Z,41
2023-04-01T06:05:55.004Z,41
2023-04-01T06:06:58.317Z,40
2023-04-01T06:08:01.595Z,40
2023-04-01T06:09:05.088Z,40
2023-04-01T06:10:08.370Z,40
2023-04-01T06:11:11.664Z,40
2023-04-01T06:12:15.010Z,40
2023-04-01T06:13:18.316Z,40
2023-04-01T06:14:21.631Z,40
2023-04-01T06:15:25.008Z,41
2023-04-01T06:16:28.354Z,41
2023-04-01T06:17:32.131Z,41
2023-04-01T06:18:35.675Z,41
2023-04-01T06:19:39.003Z,41
2023-04-01T06:20:42.270Z,41
2023-04-01T06:21:45.592Z,41
2023-04-01T06:22:49.041Z,41
2023-04-01T06:23:52.401Z,41
2023-04-01T06:24:55.915Z,41
2023-04-01T06:25:59.224Z,41
2023-04-01T06:27:02.562Z,42
2023-04-01T06:28:09.293Z,42
2023-04-01T06:29:12.786Z,42
2023-04-01T06:30:16.095Z,42
2023-04-01T06:31:19.584Z,42
2023-04-01T06:32:23.686Z,42
2023-04-01T06:33:27.375Z,41
2023-04-01T06:34:30.794Z,41
2023-04-01T06:35:34.608Z,41
2023-04-01T06:36:38.916Z,41
2023-04-01T06:37:42.343Z,41
2023-04-01T06:38:45.962Z,41
2023-04-01T06:39:49.302Z,41
2023-04-01T06:40:52.594Z,41
2023-04-01T06:41:56.262Z,41
2023-04-01T06:42:59.548Z,41
2023-04-01T06:44:03.019Z,41
2023-04-01T06:45:06.336Z,42
2023-04-01T06:46:09.683Z,42
2023-04-01T06:47:13.083Z,42
2023-04-01T06:48:16.395Z,41
2023-04-01T06:49:19.933Z,41
2023-04-01T06:50:23.271Z,41
2023-04-01T06:51:26.543Z,42
2023-04-01T06:52:30.031Z,42
2023-04-01T06:53:33.311Z,42
2023-04-01T06:54:36.614Z,42
2023-04-01T06:55:40.054Z,42
2023-04-01T06:56:43.345Z,42
2023-04-01T06:57:46.622Z,42
2023-04-01T06:58:50.308Z,42
2023-04-01T06:59:54.061Z,41
2023-04-01T07:00:57.455Z,41
2023-04-01T07:02:01.025Z,41
2023-04-01T07:03:07.063Z,41
2023-04-01T07:04:10.587Z,41
2023-04-01T07:05:14.227Z,41
2023-04-01T07:06:17.563Z,40
2023-04-01T07:07:21.069Z,40
2023-04-01T07:08:24.348Z,40
2023-04-01T07:09:27.650Z,39
2023-04-01T07:10:31.014Z,39
2023-04-01T07:11:34.312Z,39
2023-04-01T07:12:37.596Z,38
2023-04-01T07:13:41.142Z,35
2023-04-01T07:14:44.427Z,32
2023-04-01T07:15:47.748Z,32
2023-04-01T07:16:51.221Z,31
2023-04-01T07:17:54.800Z,31
2023-04-01T07:18:58.252Z,31
2023-04-01T07:20:01.548Z,31
2023-04-01T07:21:05.143Z,31
2023-04-01T07:22:08.494Z,32
2023-04-01T07:23:12.031Z,32
2023-04-01T07:24:15.302Z,32
2023-04-01T07:25:18.577Z,32
2023-04-01T07:26:22.067Z,32
2023-04-01T07:27:25.402Z,33
2023-04-01T07:28:28.941Z,33
2023-04-01T07:29:32.220Z,34
2023-04-01T07:30:35.561Z,34
2023-04-01T07:31:39.256Z,34
2023-04-01T07:32:43.086Z,34
2023-04-01T07:33:46.439Z,34
2023-04-01T07:34:49.944Z,34
2023-04-01T07:35:53.277Z,34
2023-04-01T07:36:56.662Z,34
2023-04-01T07:38:00.117Z,34
2023-04-01T07:39:03.422Z,34
2023-04-01T07:40:06.813Z,33
2023-04-01T07:41:10.084Z,33
2023-04-01T07:42:13.382Z,33
2023-04-01T07:43:19.926Z,33
2023-04-01T07:44:23.234Z,33
2023-04-01T07:45:26.520Z,33
2023-04-01T07:46:30.108Z,33
2023-04-01T07:47:33.485Z,33
2023-04-01T07:48:37.081Z,33
2023-04-01T07:49:40.424Z,33
2023-04-01T07:50:43.968Z,33
2023-04-01T07:51:48.225Z,33
2023-04-01T07:52:51.554Z,33
2023-04-01T07:53:55.134Z,33
2023-04-01T07:54:58.433Z,33
2023-04-01T07:56:02.049Z,33
2023-04-01T07:57:05.392Z,33
2023-04-01T07:58:08.764Z,33
2023-04-01T07:59:12.107Z,33
2023-04-01T08:00:15.366Z,32
2023-04-01T08:01:18.648Z,33
2023-04-01T08:02:22.271Z,33
2023-04-01T08:03:26.269Z,33
2023-04-01T08:04:30.261Z,33
2023-04-01T08:05:34.349Z,33
2023-04-01T08:06:38.717Z,32
2023-04-01T08:07:42.052Z,32
2023-04-01T08:08:45.385Z,31
2023-04-01T08:09:48.725Z,31
2023-04-01T08:10:52.078Z,32
2023-04-01T08:11:55.375Z,32
2023-04-01T08:12:58.929Z,32
2023-04-01T08:14:02.232Z,32
2023-04-01T08:15:05.596Z,32
2023-04-01T08:16:09.130Z,32
2023-04-01T08:17:12.618Z,32
2023-04-01T08:18:16.056Z,32
2023-04-01T08:19:19.390Z,32
2023-04-01T08:20:23.119Z,32
2023-04-01T08:21:26.498Z,32
2023-04-01T08:22:29.791Z,32
2023-04-01T08:23:33.104Z,32
2023-04-01T08:24:47.473Z,32
2023-04-01T08:25:51.431Z,32
2023-04-01T08:26:54.721Z,32
2023-04-01T08:27:58.074Z,32
2023-04-01T08:29:01.505Z,32
2023-04-01T08:30:05.042Z,32
2023-04-01T08:31:08.354Z,32
2023-04-01T08:32:11.857Z,32
2023-04-01T08:33:15.590Z,32
2023-04-01T08:34:19.076Z,31
2023-04-01T08:35:22.378Z,31
2023-04-01T08:36:26.013Z,31
2023-04-01T08:37:29.308Z,32
2023-04-01T08:38:32.634Z,32
2023-04-01T08:39:36.062Z,31
2023-04-01T08:40:39.362Z,31
2023-04-01T08:41:42.669Z,31
2023-04-01T08:42:46.075Z,32
2023-04-01T08:43:49.437Z,31
2023-04-01T08:44:52.979Z,31
2023-04-01T08:45:56.500Z,31
2023-04-01T08:46:59.811Z,31
2023-04-01T08:48:03.148Z,31
2023-04-01T08:49:06.544Z,31
2023-04-01T08:50:10.082Z,31
2023-04-01T08:51:13.357Z,31
2023-04-01T08:52:16.609Z,31
2023-04-01T08:53:20.150Z,31
2023-04-01T08:54:23.465Z,31
2023-04-01T08:55:26.804Z,31
2023-04-01T08:56:30.111Z,31
2023-04-01T08:57:33.749Z,31
2023-04-01T08:58:37.206Z,31
2023-04-01T08:59:40.551Z,31
2023-04-01T09:00:44.087Z,31
2023-04-01T09:01:47.395Z,31
2023-04-01T09:02:50.860Z,31
2023-04-01T09:03:54.689Z,31
2023-04-01T09:04:58.208Z,31
2023-04-01T09:06:01.495Z,31
2023-04-01T09:07:05.038Z,31
2023-04-01T09:08:08.308Z,31
2023-04-01T09:09:11.626Z,31
2023-04-01T09:10:15.114Z,31
2023-04-01T09:11:18.440Z,31
2023-04-01T09:12:21.903Z,31
2023-04-01T09:13:25.230Z,31
2023-04-01T09:14:28.542Z,31
2023-04-01T09:15:32.873Z,31
2023-04-01T09:16:37.220Z,31
2023-04-01T09:17:40.694Z,30
2023-04-01T09:18:44.290Z,30
2023-04-01T09:19:47.570Z,30
2023-04-01T09:20:51.146Z,31
2023-04-01T09:21:54.445Z,31
2023-04-01T09:22:57.756Z,31
2023-04-01T09:24:01.120Z,31
2023-04-01T09:25:04.442Z,31
2023-04-01T09:26:08.002Z,31
2023-04-01T09:27:11.307Z,31
2023-04-01T09:28:14.613Z,31
2023-04-01T09:29:18.110Z,31
2023-04-01T09:30:21.400Z,31
2023-04-01T09:31:24.838Z,31
2023-04-01T09:32:28.315Z,31
2023-04-01T09:33:31.684Z,31
2023-04-01T09:34:35.297Z,31
2023-04-01T09:35:38.855Z,31
2023-04-01T09:36:42.420Z,30
2023-04-01T09:37:45.693Z,31
2023-04-01T09:38:49.106Z,31
2023-04-01T09:39:52.374Z,31
2023-04-01T09:40:55.978Z,31
2023-04-01T09:41:59.322Z,31
2023-04-01T09:43:02.669Z,30
2023-04-01T09:44:06.207Z,31
2023-04-01T09:45:09.535Z,31
2023-04-01T09:46:13.186Z,30
2023-04-01T09:47:17.015Z,30
2023-04-01T09:48:20.296Z,30
2023-04-01T09:49:23.587Z,30
2023-04-01T09:50:27.108Z,30
2023-04-01T09:51:30.382Z,30
2023-04-01T09:52:33.690Z,31
2023-04-01T09:53:37.120Z,30
2023-04-01T09:54:40.412Z,30
2023-04-01T09:55:43.714Z,31
2023-04-01T09:56:47.305Z,30
2023-04-01T09:57:50.680Z,29
2023-04-01T09:58:54.111Z,29
2023-04-01T09:59:57.407Z,29
2023-04-01T10:01:00.740Z,29
2023-04-01T10:02:04.240Z,29
2023-04-01T10:03:08.171Z,29
2023-04-01T10:04:11.528Z,29
2023-04-01T10:05:14.877Z,30
2023-04-01T10:06:18.216Z,30
2023-04-01T10:07:21.508Z,30
2023-04-01T10:08:24.793Z,30
2023-04-01T10:09:28.108Z,30
2023-04-01T10:10:31.398Z,30
2023-04-01T10:11:34.676Z,30
2023-04-01T10:12:38.221Z,30
2023-04-01T10:13:41.771Z,30
2023-04-01T10:14:45.323Z,30
2023-04-01T10:15:48.769Z,30
2023-04-01T10:16:54.508Z,30
2023-04-01T10:17:57.841Z,30
2023-04-01T10:19:01.333Z,30
2023-04-01T10:20:04.623Z,30
2023-04-01T10:21:08.223Z,30
2023-04-01T10:22:11.540Z,30
2023-04-01T10:23:14.859Z,30
2023-04-01T10:24:18.204Z,30
2023-04-01T10:25:21.474Z,30
2023-04-01T10:26:24.762Z,30
2023-04-01T10:27:28.134Z,30
2023-04-01T10:28:31.412Z,30
2023-04-01T10:29:34.745Z,30
2023-04-01T10:30:38.264Z,30
2023-04-01T10:31:41.623Z,30
2023-04-01T10:32:45.190Z,30
2023-04-01T10:33:48.496Z,30
2023-04-01T10:34:51.822Z,30
2023-04-01T10:35:55.229Z,30
2023-04-01T10:36:58.595Z,30
2023-04-01T10:38:02.215Z,30
2023-04-01T10:39:05.495Z,30
2023-04-01T10:40:08.895Z,30
2023-04-01T10:41:12.219Z,30
2023-04-01T10:42:15.486Z,30
2023-04-01T10:43:18.769Z,30
2023-04-01T10:44:22.140Z,30
2023-04-01T10:45:25.467Z,30
2023-04-01T10:46:29.154Z,30
2023-04-01T10:47:32.617Z,30
2023-04-01T10:48:36.154Z,30
2023-04-01T10:49:39.440Z,30
2023-04-01T10:50:42.743Z,30
2023-04-01T10:51:46.150Z,30
2023-04-01T10:52:49.438Z,30
2023-04-01T10:53:52.714Z,30
2023-04-01T10:54:56.389Z,30
2023-04-01T10:55:59.717Z,30
2023-04-01T10:57:03.204Z,31
2023-04-01T10:58:06.519Z,30
2023-04-01T10:59:09.809Z,31
2023-04-01T11:00:13.141Z,31
2023-04-01T11:01:16.597Z,31
2023-04-01T11:02:20.271Z,31
2023-04-01T11:03:24.085Z,31
2023-04-01T11:04:27.795Z,31
2023-04-01T11:05:31.515Z,31
2023-04-01T11:06:35.403Z,31
2023-04-01T11:07:38.730Z,31
2023-04-01T11:08:42.142Z,31
2023-04-01T11:09:45.460Z,31
2023-04-01T11:10:48.739Z,31
2023-04-01T11:11:52.178Z,31
2023-04-01T11:12:55.464Z,31
2023-04-01T11:13:59.038Z,31
2023-04-01T11:15:02.438Z,31
2023-04-01T11:16:05.763Z,31
2023-04-01T11:17:09.206Z,31
2023-04-01T11:18:12.698Z,31
2023-04-01T11:19:16.228Z,31
2023-04-01T11:20:19.652Z,30
2023-04-01T11:21:26.577Z,30
2023-04-01T11:22:30.137Z,30
2023-04-01T11:23:33.409Z,30
2023-04-01T11:24:36.697Z,30
2023-04-01T11:25:40.208Z,31
2023-04-01T11:26:43.685Z,31
2023-04-01T11:27:47.267Z,31
2023-04-01T11:28:50.567Z,31
2023-04-01T11:30:00.005Z,31
2023-04-01T11:31:04.432Z,31
2023-04-01T11:32:08.072Z,31
2023-04-01T11:33:11.442Z,32
2023-04-01T11:34:14.807Z,31
2023-04-01T11:35:18.180Z,31
2023-04-01T11:36:21.573Z,32
2023-04-01T11:37:24.871Z,32
2023-04-01T11:38:28.149Z,32
2023-04-01T11:39:31.448Z,32
2023-04-01T11:40:34.723Z,32
2023-04-01T11:41:38.330Z,32
2023-04-01T11:42:41.651Z,32
2023-04-01T11:43:45.152Z,32
2023-04-01T11:44:48.416Z,32
2023-04-01T11:45:51.815Z,32
2023-04-01T11:46:55.213Z,32
2023-04-01T11:47:58.681Z,32
2023-04-01T11:49:02.379Z,32
2023-04-01T11:50:05.706Z,32
2023-04-01T11:51:09.205Z,32
2023-04-01T11:52:12.550Z,32
2023-04-01T11:53:15.848Z,32
2023-04-01T11:54:19.182Z,32
2023-04-01T11:55:22.452Z,32
2023-04-01T11:56:25.747Z,32
2023-04-01T11:57:29.578Z,32
2023-04-01T11:58:33.360Z,33
2023-04-01T11:59:36.675Z,33
2023-04-01T12:00:40.212Z,32
2023-04-01T12:01:43.536Z,33
2023-04-01T12:02:47.304Z,32
2023-04-01T12:03:51.139Z,33
2023-04-01T12:04:55.038Z,32
2023-04-01T12:05:59.191Z,33
2023-04-01T12:07:02.525Z,33
2023-04-01T12:08:05.878Z,33
2023-04-01T12:09:09.145Z,33
2023-04-01T12:10:12.452Z,33
2023-04-01T12:11:15.750Z,33
2023-04-01T12:12:19.190Z,33
2023-04-01T12:13:23.318Z,33
2023-04-01T12:14:26.602Z,33
2023-04-01T12:15:30.063Z,33
2023-04-01T12:16:33.847Z,33
2023-04-01T12:17:37.312Z,33
2023-04-01T12:18:40.755Z,33
2023-04-01T12:19:44.332Z,33
2023-04-01T12:20:47.647Z,33
2023-04-01T12:21:51.183Z,33
2023-04-01T12:22:54.503Z,33
2023-04-01T12:23:57.838Z,33
2023-04-01T12:25:01.170Z,33
2023-04-01T12:26:04.448Z,32
2023-04-01T12:27:07.760Z,32
2023-04-01T12:28:11.290Z,32
2023-04-01T12:29:14.640Z,31
2023-04-01T12:30:18.169Z,31
2023-04-01T12:31:21.447Z,31
2023-04-01T12:32:25.005Z,31
2023-04-01T12:33:28.502Z,31
2023-04-01T12:34:32.079Z,31
2023-04-01T12:35:36.130Z,31
2023-04-01T12:36:39.924Z,31
2023-04-01T12:37:43.256Z,31
2023-04-01T12:38:46.644Z,31
2023-04-01T12:39:50.220Z,32
2023-04-01T12:40:53.567Z,32
2023-04-01T12:41:56.857Z,32
2023-04-01T12:43:00.219Z,32
2023-04-01T12:44:03.493Z,32
2023-04-01T12:45:06.806Z,32
2023-04-01T12:46:10.471Z,32
2023-04-01T12:47:14.063Z,32
2023-04-01T12:48:17.352Z,32
2023-04-01T12:49:20.616Z,32
2023-04-01T12:50:23.960Z,32
2023-04-01T12:51:27.435Z,33
2023-04-01T12:52:30.712Z,33
2023-04-01T12:53:34.193Z,33
2023-04-01T12:54:37.517Z,32
2023-04-01T12:55:40.801Z,33
2023-04-01T12:56:44.377Z,33
2023-04-01T12:57:47.672Z,33
2023-04-01T12:58:51.200Z,33
2023-04-01T12:59:54.501Z,33
2023-04-01T13:00:57.888Z,33
2023-04-01T13:02:01.310Z,33
2023-04-01T13:03:04.850Z,33
2023-04-01T13:04:08.417Z,32
2023-04-01T13:05:11.825Z,32
2023-04-01T13:06:15.192Z,32
2023-04-01T13:07:18.502Z,32
2023-04-01T13:08:21.788Z,32
2023-04-01T13:09:25.217Z,32
2023-04-01T13:10:28.524Z,32
2023-04-01T13:11:31.827Z,32
2023-04-01T13:12:35.453Z,32
2023-04-01T13:13:39.232Z,32
2023-04-01T13:14:42.517Z,32
2023-04-01T13:15:45.907Z,33
2023-04-01T13:16:49.584Z,33
2023-04-01T13:17:53.551Z,33
2023-04-01T13:18:57.226Z,33
2023-04-01T13:20:06.494Z,33
2023-04-01T13:21:09.950Z,33
2023-04-01T13:22:13.258Z,33
2023-04-01T13:23:16.555Z,33
2023-04-01T13:24:20.121Z,33
2023-04-01T13:25:23.433Z,33
2023-04-01T13:26:26.760Z,33
2023-04-01T13:27:30.264Z,33
2023-04-01T13:28:33.547Z,33
2023-04-01T13:29:36.836Z,33
2023-04-01T13:30:40.200Z,33
2023-04-01T13:31:43.713Z,33
2023-04-01T13:32:47.629Z,33
2023-04-01T13:33:50.966Z,33
2023-04-01T13:34:54.262Z,33
2023-04-01T13:35:57.640Z,33
2023-04-01T13:37:01.285Z,33
2023-04-01T13:38:04.584Z,33
2023-04-01T13:39:08.087Z,33
2023-04-01T13:40:11.354Z,33
2023-04-01T13:41:14.682Z,33
2023-04-01T13:42:18.252Z,33
2023-04-01T13:43:21.550Z,33
2023-04-01T13:44:24.832Z,33
2023-04-01T13:45:28.221Z,33
2023-04-01T13:46:31.553Z,33
2023-04-01T13:47:35.335Z,33
2023-04-01T13:48:38.699Z,33
2023-04-01T13:49:42.758Z,33
2023-04-01T13:50:46.217Z,33
2023-04-01T13:51:49.510Z,33
2023-04-01T13:52:53.093Z,33
2023-04-01T13:53:56.374Z,33
2023-04-01T13:55:01.351Z,33
2023-04-01T13:56:04.721Z,33
2023-04-01T13:57:08.421Z,33
2023-04-01T13:58:11.890Z,33
2023-04-01T13:59:15.243Z,33
2023-04-01T14:00:18.521Z,33
2023-04-01T14:01:21.871Z,33
2023-04-01T14:02:25.290Z,33
2023-04-01T14:03:29.202Z,33
2023-04-01T14:04:32.845Z,34
2023-04-01T14:05:43.539Z,33
2023-04-01T14:06:47.547Z,33
2023-04-01T14:07:50.824Z,33
2023-04-01T14:08:54.270Z,33
2023-04-01T14:09:57.564Z,34
2023-04-01T14:11:00.915Z,34
2023-04-01T14:12:04.241Z,34
2023-04-01T14:13:07.550Z,34
2023-04-01T14:14:11.138Z,34
2023-04-01T14:15:14.434Z,34
2023-04-01T14:16:17.816Z,33
2023-04-01T14:17:21.300Z,33
2023-04-01T14:18:24.587Z,33
2023-04-01T14:19:27.931Z,33
2023-04-01T14:20:31.243Z,33
2023-04-01T14:21:34.536Z,33
2023-04-01T14:22:38.143Z,34
2023-04-01T14:23:41.422Z,34
2023-04-01T14:24:44.756Z,34
2023-04-01T14:25:48.250Z,34
2023-04-01T14:26:51.539Z,34
2023-04-01T14:27:54.806Z,34
2023-04-01T14:28:58.257Z,34
2023-04-01T14:30:01.626Z,34
2023-04-01T14:31:05.181Z,34
2023-04-01T14:32:08.560Z,35
2023-04-01T14:33:12.290Z,34
2023-04-01T14:34:15.665Z,34
2023-04-01T14:35:18.984Z,34
2023-04-01T14:36:22.376Z,34
2023-04-01T14:37:26.114Z,34
2023-04-01T14:38:29.390Z,34
2023-04-01T14:39:32.666Z,35
2023-04-01T14:40:35.978Z,35
2023-04-01T14:41:39.272Z,35
2023-04-01T14:42:42.580Z,35
2023-04-01T14:43:45.874Z,35
2023-04-01T14:44:49.252Z,35
2023-04-01T14:45:52.836Z,35
2023-04-01T14:46:56.463Z,35
2023-04-01T14:47:59.820Z,34
2023-04-01T14:49:03.240Z,35
2023-04-01T14:50:06.534Z,35
2023-04-01T14:51:09.854Z,35
2023-04-01T14:52:13.273Z,34
2023-04-01T14:53:16.738Z,34
2023-04-01T14:54:20.274Z,34
2023-04-01T14:55:23.587Z,33
2023-04-01T14:56:26.909Z,33
2023-04-01T14:57:30.573Z,33
2023-04-01T14:58:34.259Z,33
2023-04-01T14:59:37.551Z,33
2023-04-01T15:00:40.838Z,33
2023-04-01T15:01:47.675Z,33
2023-04-01T15:02:52.701Z,33
2023-04-01T15:03:56.265Z,33
2023-04-01T15:04:59.690Z,33
2023-04-01T15:06:03.259Z,33